Time;durP1;ratioP1;P1;durP2;ratioP2;P2;SDS_P1;SDS_P2;PMS_P1;PMS_P2;Temp;Humidity;BMP_temperature;BMP_pressure;BME280_temperature;BME280_humidity;BME280_pressure;Samples;Min_cycle;Max_cycle;Signal;HPM_P1;HPM_P2
2020/12/26 00:02:40;;;;;;;6.67;3.40;;;;;;;0.33;85.47;98894.47;250288;1148;27586;-77
2020/12/26 00:07:42;;;;;;;6.40;3.15;;;;;;;0.31;84.46;98893.89;250189;1148;22950;-76
2020/12/26 00:12:47;;;;;;;5.17;3.03;;;;;;;0.29;84.34;98891.45;250071;1155;22957;-75
2020/12/26 00:17:49;;;;;;;7.55;3.90;;;;;;;0.26;84.66;98893.73;250137;1148;25922;-76
2020/12/26 00:22:51;;;;;;;6.53;2.93;;;;;;;0.25;85.01;98902.66;250178;1148;23456;-75
2020/12/26 00:27:53;;;;;;;4.77;2.50;;;;;;;0.22;84.93;98892.55;249960;1148;27266;-77
2020/12/26 00:32:56;;;;;;;5.43;2.80;;;;;;;0.22;84.43;98898.62;250022;1155;23038;-78
2020/12/26 00:37:58;;;;;;;4.00;2.73;;;;;;;0.21;84.40;98898.84;250344;1148;22980;-76
2020/12/26 00:43:00;;;;;;;3.93;2.27;;;;;;;0.17;84.93;98898.48;250326;1153;22935;-76
2020/12/26 00:48:02;;;;;;;3.47;2.40;;;;;;;0.17;84.22;98903.75;250255;1148;23049;-76
2020/12/26 00:53:04;;;;;;;3.97;2.77;;;;;;;0.17;84.16;98914.30;250281;1148;22960;-77
2020/12/26 00:58:07;;;;;;;3.70;2.30;;;;;;;0.23;84.98;98909.98;250521;1147;23013;-75
2020/12/26 01:03:10;;;;;;;5.85;2.85;;;;;;;0.28;84.46;98918.02;250042;1150;22960;-76
2020/12/26 01:08:13;;;;;;;4.50;2.50;;;;;;;0.31;85.05;98918.41;250361;1148;23034;-76
2020/12/26 01:13:18;;;;;;;3.75;2.30;;;;;;;0.32;84.08;98917.39;250320;1147;23073;-75
2020/12/26 01:18:20;;;;;;;4.70;2.43;;;;;;;0.29;84.45;98925.70;250287;1148;22933;-77
2020/12/26 01:23:23;;;;;;;4.63;2.80;;;;;;;0.27;84.08;98908.53;250117;1155;22981;-77
2020/12/26 01:28:25;;;;;;;3.47;2.20;;;;;;;0.25;84.09;98914.02;250323;1148;22944;-76
2020/12/26 01:33:27;;;;;;;6.40;3.50;;;;;;;0.22;83.77;98909.16;250448;1148;23021;-75
2020/12/26 01:38:29;;;;;;;4.77;3.23;;;;;;;0.21;83.96;98906.74;250329;1148;23085;-78
2020/12/26 01:43:32;;;;;;;5.83;3.47;;;;;;;0.19;84.37;98904.33;250213;1155;22947;-77
2020/12/26 01:48:34;;;;;;;6.20;3.60;;;;;;;0.13;84.84;98910.48;250252;1147;22974;-75
2020/12/26 01:53:36;;;;;;;7.40;3.40;;;;;;;0.17;84.88;98916.92;250376;1147;26392;-76
2020/12/26 01:58:42;;;;;;;5.70;3.90;;;;;;;0.18;84.20;98915.09;250351;1148;22930;-77
2020/12/26 02:03:45;;;;;;;6.40;3.40;;;;;;;0.20;85.13;98913.86;250094;1155;22946;-79
2020/12/26 02:08:47;;;;;;;6.23;4.07;;;;;;;0.19;84.53;98914.87;250077;1148;22923;-77
2020/12/26 02:13:49;;;;;;;5.00;3.63;;;;;;;0.22;85.38;98911.00;250289;1148;25980;-77
2020/12/26 02:18:53;;;;;;;4.85;3.75;;;;;;;0.22;84.39;98914.42;250134;1148;22928;-77
2020/12/26 02:23:55;;;;;;;5.23;3.90;;;;;;;0.19;85.39;98916.70;250181;1150;22953;-77
2020/12/26 02:28:57;;;;;;;4.70;3.63;;;;;;;0.19;85.05;98914.87;250073;1148;23162;-77
2020/12/26 02:34:00;;;;;;;5.10;3.67;;;;;;;0.22;85.51;98917.06;250407;1152;22926;-77
2020/12/26 02:39:07;;;;;;;5.80;3.50;;;;;;;0.20;85.53;98905.13;250339;1147;24403;-77
2020/12/26 02:44:09;;;;;;;8.70;4.30;;;;;;;0.12;85.28;98911.49;249986;1155;23130;-77
2020/12/26 02:49:11;;;;;;;6.07;4.20;;;;;;;0.13;85.58;98903.37;249947;1148;22943;-75
2020/12/26 02:54:14;;;;;;;5.50;3.60;;;;;;;0.11;85.39;98908.06;250566;1148;23056;-76
2020/12/26 02:59:16;;;;;;;6.03;3.97;;;;;;;0.08;85.91;98916.38;250243;1148;25922;-77
2020/12/26 03:04:18;;;;;;;4.93;3.10;;;;;;;0.07;85.47;98916.59;250309;1153;22944;-76
2020/12/26 03:09:20;;;;;;;4.23;2.70;;;;;;;-0.02;85.52;98919.49;250025;1148;22974;-77
2020/12/26 03:14:22;;;;;;;5.43;3.40;;;;;;;-0.13;85.69;98912.30;250292;1148;22926;-76
2020/12/26 03:19:24;;;;;;;5.40;3.35;;;;;;;-0.18;85.82;98917.42;250341;1148;23173;-76
2020/12/26 03:24:26;;;;;;;4.00;3.27;;;;;;;-0.20;85.13;98917.64;250270;1148;23044;-77
2020/12/26 03:29:28;;;;;;;4.57;3.40;;;;;;;-0.19;85.26;98918.44;250109;1153;22947;-76
2020/12/26 03:34:31;;;;;;;6.15;3.45;;;;;;;-0.22;85.40;98930.20;249847;1148;22939;-77
2020/12/26 03:39:36;;;;;;;6.47;3.90;;;;;;;-0.18;86.06;98930.59;249872;1148;22932;-77
2020/12/26 03:44:39;;;;;;;6.55;3.35;;;;;;;-0.18;85.84;98931.38;250222;1147;22964;-79
2020/12/26 03:49:41;;;;;;;6.53;3.87;;;;;;;-0.22;85.12;98924.93;250403;1152;22929;-77
2020/12/26 03:54:43;;;;;;;5.70;3.30;;;;;;;-0.19;85.60;98950.83;250295;1148;22953;-77
2020/12/26 03:59:45;;;;;;;8.95;5.25;;;;;;;-0.17;85.73;98953.24;250192;1148;22953;-76
2020/12/26 04:04:48;;;;;;;10.50;5.15;;;;;;;-0.14;86.23;98952.84;250061;1147;22920;-76
2020/12/26 04:09:50;;;;;;;8.40;5.00;;;;;;;-0.10;86.48;98967.20;250127;1147;22973;-76
2020/12/26 04:14:52;;;;;;;6.17;4.13;;;;;;;-0.09;86.34;98958.25;249889;1150;22938;-75
2020/12/26 04:19:54;;;;;;;6.63;4.27;;;;;;;-0.07;86.26;98961.50;249878;1148;22934;-76
2020/12/26 04:24:57;;;;;;;7.10;4.73;;;;;;;-0.03;86.16;98967.95;249736;1148;22994;-77
2020/12/26 04:29:59;;;;;;;5.90;3.93;;;;;;;-0.02;85.77;98971.37;250192;1148;22946;-78
2020/12/26 04:35:01;;;;;;;5.83;3.77;;;;;;;0.00;85.36;98966.72;249896;1148;22971;-77
2020/12/26 04:40:04;;;;;;;5.70;3.53;;;;;;;0.02;86.49;98967.30;250396;1153;22953;-75
2020/12/26 04:45:06;;;;;;;4.77;3.33;;;;;;;0.03;85.55;98976.82;250114;1148;22944;-76
2020/12/26 04:50:08;;;;;;;5.83;4.10;;;;;;;0.07;85.59;98970.10;249868;1148;25906;-79
2020/12/26 04:55:11;;;;;;;4.77;2.57;;;;;;;0.10;85.33;98960.94;250362;1148;23431;-78
2020/12/26 05:00:14;;;;;;;5.60;3.30;;;;;;;0.07;85.64;98970.10;250130;1147;22953;-77
2020/12/26 05:05:16;;;;;;;5.65;3.30;;;;;;;0.08;84.82;98971.70;250244;1148;25986;-77
2020/12/26 05:10:19;;;;;;;4.13;2.27;;;;;;;0.08;84.75;98976.16;249890;1148;22967;-78
2020/12/26 05:15:23;;;;;;;4.95;2.95;;;;;;;0.05;84.85;98974.77;249768;1148;22941;-79
2020/12/26 05:20:26;;;;;;;5.50;3.50;;;;;;;0.09;85.10;98981.22;249838;1148;23312;-78
2020/12/26 05:25:29;;;;;;;5.07;2.20;;;;;;;0.12;84.97;98991.32;249882;1148;22925;-78
2020/12/26 05:30:34;;;;;;;5.73;2.43;;;;;;;0.16;85.62;99010.16;249943;1148;22931;-78
2020/12/26 05:35:43;;;;;;;4.85;2.50;;;;;;;0.14;85.62;99002.47;250237;1148;24468;-75
2020/12/26 05:40:56;;;;;;;6.43;2.70;;;;;;;0.14;84.48;99010.37;250639;1148;25986;-77
2020/12/26 05:45:59;;;;;;;3.35;2.05;;;;;;;0.15;85.10;99011.17;250055;1148;22916;-76
2020/12/26 05:51:03;;;;;;;4.90;2.80;;;;;;;0.16;85.25;99032.03;250383;1147;23010;-76
2020/12/26 05:56:18;;;;;;;4.07;2.07;;;;;;;0.14;85.41;99027.98;250109;1150;22969;-77
2020/12/26 06:01:20;;;;;;;3.77;2.10;;;;;;;0.10;84.97;99035.53;250396;1153;23725;-77
2020/12/26 06:06:24;;;;;;;2.77;1.97;;;;;;;0.09;84.49;99033.11;250088;1151;22935;-78
2020/12/26 06:11:26;;;;;;;3.10;1.90;;;;;;;0.01;84.44;99034.16;250044;1151;22960;-78
2020/12/26 06:16:30;;;;;;;4.63;2.27;;;;;;;0.00;85.05;99040.47;249926;1148;22913;-76
2020/12/26 06:21:32;;;;;;;2.13;1.53;;;;;;;-0.01;85.29;99038.84;249903;1148;22913;-78
2020/12/26 06:26:35;;;;;;;5.83;2.00;;;;;;;0.02;84.39;99054.22;249836;1151;22929;-78
2020/12/26 06:31:38;;;;;;;8.57;4.03;;;;;;;0.00;84.29;99056.27;249839;1156;22970;-79
2020/12/26 06:36:41;;;;;;;8.13;4.03;;;;;;;0.01;85.41;99057.87;250256;1148;25989;-77
2020/12/26 06:41:43;;;;;;;5.10;2.60;;;;;;;-0.04;84.60;99068.25;250038;1148;22974;-78
2020/12/26 06:46:45;;;;;;;5.47;3.10;;;;;;;-0.11;84.78;99067.45;250168;1147;23073;-77
2020/12/26 06:51:47;;;;;;;6.53;3.50;;;;;;;-0.19;84.58;99066.69;250200;1147;26880;-77
2020/12/26 06:56:49;;;;;;;7.20;3.95;;;;;;;-0.24;85.65;99079.70;250240;1148;22918;-77
2020/12/26 07:02:03;;;;;;;6.73;4.10;;;;;;;-0.24;85.58;99086.77;250112;1152;23088;-75
2020/12/26 07:07:06;;;;;;;7.87;3.97;;;;;;;-0.25;85.36;99093.05;250253;1148;22956;-76
2020/12/26 07:12:09;;;;;;;8.65;5.05;;;;;;;-0.29;85.50;99087.41;249885;1149;23086;-76
2020/12/26 07:17:15;;;;;;;5.43;3.90;;;;;;;-0.29;85.83;99097.94;249847;1148;22925;-76
2020/12/26 07:22:28;;;;;;;6.60;4.07;;;;;;;-0.32;86.20;99105.43;249851;1155;22870;-78
2020/12/26 07:27:41;;;;;;;6.93;4.80;;;;;;;-0.33;85.80;99107.27;250000;1150;26407;-77
2020/12/26 07:32:50;;;;;;;7.33;4.60;;;;;;;-0.23;85.83;99112.09;250036;1156;22935;-77
2020/12/26 07:37:52;;;;;;;7.67;4.30;;;;;;;-0.21;85.74;99113.50;250295;1148;22909;-78
2020/12/26 07:42:55;;;;;;;7.67;3.97;;;;;;;-0.15;86.54;99121.56;250270;1153;23377;-78
2020/12/26 07:47:59;;;;;;;7.07;4.10;;;;;;;-0.11;85.74;99122.76;249982;1151;24467;-78
2020/12/26 07:53:04;;;;;;;6.80;4.30;;;;;;;-0.08;86.46;99125.80;250049;1149;22927;-79
2020/12/26 07:58:07;;;;;;;6.65;3.90;;;;;;;-0.01;86.67;99134.47;250618;1148;23035;-77
2020/12/26 08:03:12;;;;;;;7.50;4.23;;;;;;;0.00;85.98;99143.20;250427;1153;23443;-77
2020/12/26 08:08:23;;;;;;;5.83;3.60;;;;;;;0.02;85.25;99135.88;249885;1148;23389;-77
2020/12/26 08:13:25;;;;;;;5.27;3.60;;;;;;;0.02;85.73;99146.41;250074;1156;22955;-77
2020/12/26 08:18:31;;;;;;;7.85;4.55;;;;;;;0.05;86.11;99150.46;250158;1148;23049;-78
2020/12/26 08:23:33;;;;;;;11.10;5.00;;;;;;;0.07;85.58;99169.48;250284;1152;23070;-77
2020/12/26 08:28:38;;;;;;;7.95;4.50;;;;;;;0.04;85.43;99160.17;250200;1151;22909;-78
2020/12/26 08:33:47;;;;;;;10.37;4.50;;;;;;;0.03;85.73;99168.28;250461;1148;26414;-76
2020/12/26 08:38:56;;;;;;;7.23;4.00;;;;;;;0.05;85.06;99169.70;250356;1150;23033;-78
2020/12/26 08:43:59;;;;;;;7.53;4.60;;;;;;;0.10;85.46;99183.06;250359;1149;25969;-76
2020/12/26 08:49:03;;;;;;;9.20;4.03;;;;;;;0.13;85.60;99192.37;250212;1148;23047;-77
2020/12/26 08:54:06;;;;;;;8.90;3.70;;;;;;;0.21;85.08;99194.77;250343;1148;27294;-78
2020/12/26 08:59:08;;;;;;;6.90;3.70;;;;;;;0.28;85.13;99198.17;250061;1151;23066;-78
2020/12/26 09:04:15;;;;;;;6.53;3.33;;;;;;;0.40;84.64;99194.88;249980;1155;22963;-78
2020/12/26 09:09:17;;;;;;;5.07;3.00;;;;;;;0.51;84.98;99189.72;250012;1148;22941;-77
2020/12/26 09:14:21;;;;;;;5.30;2.90;;;;;;;0.62;84.63;99192.72;250240;1148;23019;-77
2020/12/26 09:19:24;;;;;;;7.63;2.83;;;;;;;0.70;84.21;99189.00;249916;1148;22926;-78
2020/12/26 09:24:26;;;;;;;4.15;2.30;;;;;;;0.75;83.38;99183.91;249832;1155;22921;-78
2020/12/26 09:29:28;;;;;;;8.05;3.50;;;;;;;0.84;84.25;99190.55;250138;1148;23015;-78
2020/12/26 09:34:35;;;;;;;8.20;3.37;;;;;;;0.90;84.04;99191.52;249873;1148;23124;-77
2020/12/26 09:39:38;;;;;;;9.60;3.50;;;;;;;0.94;83.31;99203.26;250264;1147;22950;-77
2020/12/26 09:44:40;;;;;;;5.75;3.05;;;;;;;0.95;82.95;99212.77;250154;1148;23010;-77
2020/12/26 09:49:43;;;;;;;5.70;2.75;;;;;;;0.93;82.44;99217.47;250028;1148;23086;-78
2020/12/26 09:54:45;;;;;;;5.25;2.70;;;;;;;1.01;81.88;99218.00;249801;1148;22944;-76
2020/12/26 09:59:47;;;;;;;7.47;2.83;;;;;;;1.08;81.73;99211.85;250381;1147;27630;-78
2020/12/26 10:04:49;;;;;;;6.47;3.57;;;;;;;1.11;81.40;99201.69;250140;1151;22931;-77
2020/12/26 10:09:51;;;;;;;6.27;3.20;;;;;;;1.15;81.76;99197.59;249987;1147;23089;-77
2020/12/26 10:14:53;;;;;;;5.43;2.80;;;;;;;1.18;80.15;99202.44;249824;1148;23143;-76
2020/12/26 10:19:55;;;;;;;6.63;2.87;;;;;;;1.27;80.59;99210.88;250047;1148;23021;-78
2020/12/26 10:24:58;;;;;;;4.67;1.90;;;;;;;1.33;80.18;99211.84;250291;1146;22931;-77
2020/12/26 10:30:00;;;;;;;4.65;2.50;;;;;;;1.37;80.03;99202.47;249818;1148;23611;-77
2020/12/26 10:35:02;;;;;;;5.47;2.30;;;;;;;1.45;79.79;99206.67;249975;1148;22954;-78
2020/12/26 10:40:06;;;;;;;5.20;2.45;;;;;;;1.47;79.83;99201.97;250026;1148;22880;-77
2020/12/26 10:45:08;;;;;;;4.70;2.43;;;;;;;1.54;80.20;99194.81;250048;1156;23082;-76
2020/12/26 10:50:11;;;;;;;6.50;2.70;;;;;;;1.54;79.06;99206.17;249935;1148;23439;-76
2020/12/26 10:55:14;;;;;;;3.97;1.80;;;;;;;1.51;78.69;99198.70;249857;1148;22985;-78
2020/12/26 11:00:16;;;;;;;3.55;1.80;;;;;;;1.44;78.09;99202.41;249913;1148;22950;-77
2020/12/26 11:05:19;;;;;;;4.95;1.90;;;;;;;1.35;78.06;99202.69;249812;1148;22949;-75
2020/12/26 11:10:21;;;;;;;4.77;2.00;;;;;;;1.35;78.03;99207.17;249813;1148;23017;-75
2020/12/26 11:15:23;;;;;;;6.70;2.35;;;;;;;1.35;77.65;99201.89;249913;1151;22931;-78
2020/12/26 11:20:26;;;;;;;8.37;2.97;;;;;;;1.35;77.55;99202.69;249777;1148;22999;-75
2020/12/26 11:25:28;;;;;;;6.50;3.05;;;;;;;1.33;77.39;99201.28;249826;1156;22938;-75
2020/12/26 11:30:30;;;;;;;5.10;2.60;;;;;;;1.32;77.92;99204.97;249962;1148;22933;-77
2020/12/26 11:35:32;;;;;;;4.30;2.27;;;;;;;1.30;77.85;99207.00;250039;1153;22947;-79
2020/12/26 11:40:34;;;;;;;4.83;2.60;;;;;;;1.34;77.46;99195.81;250074;1148;23095;-78
2020/12/26 11:45:36;;;;;;;5.17;2.47;;;;;;;1.38;77.37;99190.89;249939;1148;22926;-78
2020/12/26 11:50:38;;;;;;;8.35;3.50;;;;;;;1.45;78.10;99188.19;249931;1148;22954;-75
2020/12/26 11:55:41;;;;;;;6.55;3.10;;;;;;;1.56;77.48;99186.67;250275;1147;22922;-78
2020/12/26 12:00:43;;;;;;;7.57;4.20;;;;;;;1.50;77.32;99189.16;249994;1147;22933;-78
2020/12/26 12:05:46;;;;;;;6.33;3.63;;;;;;;1.50;77.17;99193.63;249941;1148;22957;-77
2020/12/26 12:10:50;;;;;;;7.23;4.40;;;;;;;1.52;77.54;99200.28;250068;1148;22921;-76
2020/12/26 12:15:52;;;;;;;8.73;3.13;;;;;;;1.53;77.26;99206.39;250168;1152;22919;-78
2020/12/26 12:20:54;;;;;;;5.75;2.65;;;;;;;1.51;76.62;99216.35;250095;1148;22960;-77
2020/12/26 12:25:56;;;;;;;4.25;2.30;;;;;;;1.52;76.44;99207.41;249913;1148;23386;-75
2020/12/26 12:30:59;;;;;;;4.80;2.13;;;;;;;1.48;76.70;99206.23;249878;1148;23082;-77
2020/12/26 12:36:03;;;;;;;4.90;2.10;;;;;;;1.42;75.99;99207.91;250281;1147;22925;-77
2020/12/26 12:41:05;;;;;;;4.10;1.55;;;;;;;1.35;76.40;99210.61;250357;1147;22954;-78
2020/12/26 12:46:10;;;;;;;5.80;2.37;;;;;;;1.30;76.35;99210.47;249995;1150;22925;-78
2020/12/26 12:51:12;;;;;;;5.37;2.23;;;;;;;1.26;75.94;99203.18;250652;1147;22903;-78
2020/12/26 12:56:14;;;;;;;6.00;2.70;;;;;;;1.21;75.23;99208.32;250214;1148;22922;-78
2020/12/26 13:01:16;;;;;;;6.77;2.70;;;;;;;1.18;75.89;99202.44;250354;1147;22928;-78
2020/12/26 13:06:18;;;;;;;6.50;2.40;;;;;;;1.15;74.83;99208.15;250432;1152;23007;-78
2020/12/26 13:11:21;;;;;;;6.00;2.93;;;;;;;1.15;75.23;99197.59;249884;1148;22947;-77
2020/12/26 13:16:23;;;;;;;5.25;2.40;;;;;;;1.11;75.47;99199.05;250269;1152;22929;-78
2020/12/26 13:21:25;;;;;;;4.90;2.20;;;;;;;1.11;75.19;99200.89;250131;1148;26364;-75
2020/12/26 13:26:27;;;;;;;5.47;2.50;;;;;;;1.08;75.11;99207.41;249873;1149;23095;-77
2020/12/26 13:31:33;;;;;;;6.05;2.85;;;;;;;1.06;74.86;99219.98;250176;1148;22931;-76
2020/12/26 13:36:36;;;;;;;6.97;2.77;;;;;;;1.08;74.91;99228.52;250170;1147;23082;-78
2020/12/26 13:41:39;;;;;;;5.43;2.03;;;;;;;1.05;74.68;99239.50;250338;1148;22947;-78
2020/12/26 13:46:44;;;;;;;8.60;3.30;;;;;;;1.02;74.93;99240.73;249815;1148;23121;-77
2020/12/26 13:51:47;;;;;;;5.23;2.30;;;;;;;1.01;74.16;99238.31;249959;1148;27629;-77
2020/12/26 13:56:48;;;;;;;4.40;2.10;;;;;;;0.95;74.19;99239.14;250089;1148;22937;-77
2020/12/26 14:01:50;;;;;;;5.17;2.13;;;;;;;0.87;74.12;99242.04;250338;1153;22928;-78
2020/12/26 14:06:55;;;;;;;4.85;2.30;;;;;;;0.78;73.45;99234.38;250191;1148;23377;-78
2020/12/26 14:11:57;;;;;;;5.45;2.15;;;;;;;0.75;74.11;99244.56;250550;1151;22915;-78
2020/12/26 14:17:00;;;;;;;6.03;2.30;;;;;;;0.71;73.88;99232.82;250591;1150;22946;-78
2020/12/26 14:22:04;;;;;;;7.67;3.70;;;;;;;0.67;73.97;99238.52;250280;1153;22974;-78
2020/12/26 14:27:06;;;;;;;7.60;4.15;;;;;;;0.63;73.42;99239.97;250044;1148;22998;-78
2020/12/26 14:32:08;;;;;;;10.70;4.10;;;;;;;0.63;74.53;99242.60;250112;1155;23076;-77
2020/12/26 14:37:11;;;;;;;11.80;4.57;;;;;;;0.61;74.79;99238.56;250325;1147;22938;-78
2020/12/26 14:42:13;;;;;;;7.20;3.53;;;;;;;0.55;74.02;99248.13;250400;1153;23023;-77
2020/12/26 14:47:16;;;;;;;7.83;3.37;;;;;;;0.42;74.81;99249.00;250309;1150;22932;-77
2020/12/26 14:52:19;;;;;;;10.70;5.30;;;;;;;0.24;74.13;99256.77;250033;1156;22929;-77
2020/12/26 14:57:21;;;;;;;10.70;4.83;;;;;;;0.09;73.78;99254.41;250102;1150;22924;-78
2020/12/26 15:02:23;;;;;;;14.13;5.93;;;;;;;-0.08;74.03;99248.78;250682;1155;23088;-78
2020/12/26 15:07:25;;;;;;;16.53;8.37;;;;;;;-0.22;74.01;99261.97;250022;1148;22932;-78
2020/12/26 15:12:27;;;;;;;16.05;7.75;;;;;;;-0.37;74.96;99259.55;249929;1148;22959;-77
2020/12/26 15:17:29;;;;;;;21.63;8.77;;;;;;;-0.48;75.34;99272.53;250131;1148;23018;-77
2020/12/26 15:22:31;;;;;;;18.45;7.55;;;;;;;-0.56;75.58;99265.64;249941;1148;23118;-77
2020/12/26 15:27:33;;;;;;;20.53;8.03;;;;;;;-0.57;75.71;99256.16;250068;1150;23388;-78
2020/12/26 15:32:35;;;;;;;25.15;9.95;;;;;;;-0.60;75.33;99253.91;250020;1156;22929;-79
2020/12/26 15:37:37;;;;;;;19.63;8.20;;;;;;;-0.62;75.30;99264.63;250050;1150;22940;-76
2020/12/26 15:42:40;;;;;;;15.40;6.83;;;;;;;-0.64;75.69;99258.78;250038;1153;22950;-78
2020/12/26 15:47:42;;;;;;;12.85;6.85;;;;;;;-0.62;76.24;99266.47;250086;1151;23434;-78
2020/12/26 15:52:44;;;;;;;18.90;7.83;;;;;;;-0.60;76.05;99265.26;249995;1155;23390;-78
2020/12/26 15:57:46;;;;;;;15.20;6.97;;;;;;;-0.59;75.64;99276.58;250103;1148;23082;-77
2020/12/26 16:02:48;;;;;;;16.70;6.87;;;;;;;-0.59;76.21;99263.42;249925;1155;22941;-77
2020/12/26 16:07:50;;;;;;;17.03;6.70;;;;;;;-0.64;76.13;99269.30;249974;1148;23015;-78
2020/12/26 16:12:52;;;;;;;11.47;6.03;;;;;;;-0.77;76.23;99264.86;249898;1147;23018;-77
2020/12/26 16:17:54;;;;;;;11.70;5.00;;;;;;;-0.89;75.81;99258.58;249944;1151;23342;-76
2020/12/26 16:22:57;;;;;;;13.80;5.47;;;;;;;-1.03;75.99;99260.38;249948;1155;23091;-77
2020/12/26 16:27:59;;;;;;;16.23;6.50;;;;;;;-1.11;76.59;99260.56;250318;1148;22925;-78
2020/12/26 16:33:01;;;;;;;16.47;6.80;;;;;;;-1.15;76.75;99254.09;250394;1148;27083;-81
2020/12/26 16:38:05;;;;;;;12.10;5.37;;;;;;;-1.17;76.50;99254.29;249908;1148;22938;-77
2020/12/26 16:43:07;;;;;;;10.60;5.07;;;;;;;-1.23;76.76;99255.90;249901;1156;23040;-78
2020/12/26 16:48:09;;;;;;;11.00;5.07;;;;;;;-1.34;77.11;99247.77;250219;1148;23088;-79
2020/12/26 16:53:11;;;;;;;15.70;5.65;;;;;;;-1.47;77.12;99243.30;250100;1153;22940;-77
2020/12/26 16:58:13;;;;;;;11.30;4.53;;;;;;;-1.62;77.09;99233.77;250081;1148;25980;-79
2020/12/26 17:03:15;;;;;;;11.03;4.50;;;;;;;-1.72;77.04;99235.96;249936;1151;22959;-78
2020/12/26 17:08:17;;;;;;;10.33;4.77;;;;;;;-1.84;77.46;99240.16;250195;1148;22922;-75
2020/12/26 17:13:19;;;;;;;11.50;5.13;;;;;;;-1.91;77.43;99248.80;250400;1152;22873;-77
2020/12/26 17:18:21;;;;;;;9.85;4.70;;;;;;;-1.94;77.68;99240.52;250034;1148;22950;-76
2020/12/26 17:23:23;;;;;;;9.87;4.33;;;;;;;-1.92;78.01;99241.11;250141;1148;22931;-79
2020/12/26 17:28:25;;;;;;;14.00;5.67;;;;;;;-1.89;78.15;99243.34;250248;1148;23153;-78
2020/12/26 17:33:27;;;;;;;16.97;6.80;;;;;;;-1.88;77.77;99252.05;250364;1148;26184;-78
2020/12/26 17:38:29;;;;;;;14.00;6.40;;;;;;;-1.86;77.80;99258.73;250198;1148;22934;-77
2020/12/26 17:43:32;;;;;;;17.90;7.20;;;;;;;-1.81;78.04;99263.39;249955;1156;22938;-78
2020/12/26 17:48:34;;;;;;;14.90;6.95;;;;;;;-1.74;77.31;99264.23;250070;1148;23085;-77
2020/12/26 17:53:36;;;;;;;24.33;9.77;;;;;;;-1.70;77.96;99268.09;250458;1152;23088;-79
2020/12/26 17:58:41;;;;;;;27.70;11.47;;;;;;;-1.65;78.52;99263.06;250129;1148;22960;-78
2020/12/26 18:03:45;;;;;;;47.30;19.10;;;;;;;-1.61;78.70;99258.20;249879;1151;22935;-79
2020/12/26 18:08:46;;;;;;;50.93;21.27;;;;;;;-1.68;78.63;99250.30;250358;1148;23172;-78
2020/12/26 18:13:50;;;;;;;58.30;22.73;;;;;;;-1.74;78.31;99253.72;250207;1153;22915;-78
2020/12/26 18:18:52;;;;;;;64.97;26.77;;;;;;;-1.83;78.80;99245.20;250080;1148;23030;-78
2020/12/26 18:23:57;;;;;;;64.67;25.67;;;;;;;-1.90;78.59;99250.42;250009;1148;22928;-76
2020/12/26 18:28:59;;;;;;;65.60;26.13;;;;;;;-1.96;79.37;99243.34;250012;1148;22922;-77
2020/12/26 18:34:02;;;;;;;74.70;26.90;;;;;;;-1.98;78.99;99239.28;250624;1152;23075;-77
2020/12/26 18:39:04;;;;;;;71.03;25.90;;;;;;;-2.07;79.07;99238.61;250393;1147;23053;-78
2020/12/26 18:44:06;;;;;;;66.40;25.60;;;;;;;-2.13;79.34;99236.77;249961;1148;23095;-78
2020/12/26 18:49:08;;;;;;;52.33;21.53;;;;;;;-2.18;79.73;99234.73;250129;1148;22971;-80
2020/12/26 18:54:10;;;;;;;60.90;24.57;;;;;;;-2.21;79.49;99240.38;250353;1153;22940;-79
2020/12/26 18:59:12;;;;;;;69.77;27.87;;;;;;;-2.27;79.52;99236.72;250315;1148;22960;-79
2020/12/26 19:04:15;;;;;;;65.13;28.17;;;;;;;-2.34;80.04;99248.97;250242;1149;22953;-78
2020/12/26 19:09:17;;;;;;;76.50;30.47;;;;;;;-2.38;79.90;99246.92;250316;1148;25868;-78
2020/12/26 19:14:20;;;;;;;69.25;27.35;;;;;;;-2.43;80.27;99247.52;250698;1147;27045;-77
2020/12/26 19:19:22;;;;;;;61.57;25.27;;;;;;;-2.51;79.48;99248.45;250391;1148;27713;-79
2020/12/26 19:24:24;;;;;;;64.55;27.75;;;;;;;-2.56;79.97;99250.03;250075;1148;23522;-78
2020/12/26 19:29:27;;;;;;;55.23;23.63;;;;;;;-2.63;79.76;99252.59;250166;1147;22950;-77
2020/12/26 19:34:31;;;;;;;58.00;25.57;;;;;;;-2.68;80.37;99253.17;250404;1148;22943;-78
2020/12/26 19:39:36;;;;;;;53.75;22.20;;;;;;;-2.69;80.33;99264.66;250358;1148;22904;-78
2020/12/26 19:44:39;;;;;;;48.30;21.63;;;;;;;-2.69;80.74;99262.04;250375;1148;22981;-77
2020/12/26 19:49:41;;;;;;;46.00;19.80;;;;;;;-2.70;80.66;99263.06;250312;1147;23066;-79
2020/12/26 19:54:43;;;;;;;38.40;15.73;;;;;;;-2.71;79.93;99266.67;250714;1147;23008;-78
2020/12/26 19:59:45;;;;;;;39.57;17.40;;;;;;;-2.75;80.37;99263.61;250346;1148;23024;-78
2020/12/26 20:04:47;;;;;;;40.27;17.33;;;;;;;-2.78;79.72;99263.99;250266;1155;23053;-81
2020/12/26 20:09:50;;;;;;;43.70;17.97;;;;;;;-2.81;79.68;99258.30;250232;1148;23024;-79
2020/12/26 20:14:52;;;;;;;40.10;16.10;;;;;;;-2.83;80.00;99249.83;250443;1150;22920;-77
2020/12/26 20:19:55;;;;;;;39.50;18.00;;;;;;;-2.84;79.74;99248.20;250400;1148;23385;-78
2020/12/26 20:24:57;;;;;;;39.83;17.27;;;;;;;-2.87;80.02;99251.20;250375;1148;22935;-79
2020/12/26 20:30:00;;;;;;;42.77;16.87;;;;;;;-2.89;80.04;99240.11;250288;1148;23089;-79
2020/12/26 20:35:03;;;;;;;41.03;17.73;;;;;;;-2.95;79.77;99236.44;250593;1148;22947;-80
2020/12/26 20:40:05;;;;;;;40.90;17.70;;;;;;;-3.02;79.79;99225.89;250990;1148;22947;-78
2020/12/26 20:45:09;;;;;;;50.80;21.65;;;;;;;-3.06;80.02;99222.02;250428;1148;22924;-78
2020/12/26 20:50:11;;;;;;;71.10;27.30;;;;;;;-3.05;80.36;99213.16;250284;1148;22939;-80
2020/12/26 20:55:14;;;;;;;79.17;29.30;;;;;;;-3.01;80.75;99217.00;250536;1153;23041;-78
2020/12/26 21:00:16;;;;;;;68.93;27.93;;;;;;;-2.99;80.86;99211.59;250651;1148;22964;-79
2020/12/26 21:05:18;;;;;;;63.73;26.23;;;;;;;-3.04;80.81;99211.34;250334;1151;23088;-78
2020/12/26 21:10:21;;;;;;;69.40;26.27;;;;;;;-3.10;80.54;99203.22;250412;1148;22935;-80
2020/12/26 21:15:23;;;;;;;89.77;34.00;;;;;;;-3.14;80.41;99207.22;250871;1148;22943;-78
2020/12/26 21:20:25;;;;;;;85.93;31.73;;;;;;;-3.18;80.31;99203.35;250519;1152;22934;-79
2020/12/26 21:25:27;;;;;;;74.40;29.30;;;;;;;-3.23;80.16;99210.98;250429;1148;22960;-79
2020/12/26 21:30:29;;;;;;;75.70;31.10;;;;;;;-3.25;81.04;99212.97;250050;1155;22935;-78
2020/12/26 21:35:31;;;;;;;75.67;30.23;;;;;;;-3.23;81.57;99197.05;249892;1148;22957;-78
2020/12/26 21:40:34;;;;;;;73.93;29.47;;;;;;;-3.26;80.96;99195.61;250337;1155;23021;-79
2020/12/26 21:45:36;;;;;;;81.53;32.07;;;;;;;-3.28;80.64;99189.77;250303;1151;23645;-79
2020/12/26 21:50:38;;;;;;;83.53;31.27;;;;;;;-3.29;80.84;99178.48;250136;1155;22918;-79
2020/12/26 21:55:43;;;;;;;61.13;23.73;;;;;;;-3.33;80.86;99187.72;250112;1148;22963;-79
2020/12/26 22:00:50;;;;;;;50.83;19.17;;;;;;;-3.43;80.10;99189.81;250135;1155;22954;-79
2020/12/26 22:05:52;;;;;;;63.77;25.00;;;;;;;-3.51;80.33;99185.53;250246;1151;22919;-76
2020/12/26 22:10:55;;;;;;;61.27;24.97;;;;;;;-3.53;80.41;99171.79;250382;1148;23486;-77
2020/12/26 22:15:57;;;;;;;54.07;23.13;;;;;;;-3.50;81.14;99155.73;250049;1155;22957;-78
2020/12/26 22:20:59;;;;;;;52.43;22.00;;;;;;;-3.49;81.20;99157.33;250141;1148;22928;-77
2020/12/26 22:26:01;;;;;;;49.20;20.43;;;;;;;-3.48;80.62;99158.16;250406;1151;22912;-77
2020/12/26 22:31:04;;;;;;;46.43;19.23;;;;;;;-3.49;81.04;99151.28;250537;1153;23054;-77
2020/12/26 22:36:12;;;;;;;39.83;18.87;;;;;;;-3.51;80.48;99155.89;250209;1148;22953;-79
2020/12/26 22:41:15;;;;;;;46.13;20.53;;;;;;;-3.53;80.79;99136.94;250283;1155;23406;-80
2020/12/26 22:46:17;;;;;;;50.77;21.73;;;;;;;-3.54;81.38;99130.91;250293;1148;23074;-78
2020/12/26 22:51:20;;;;;;;53.13;20.07;;;;;;;-3.54;81.17;99122.22;250424;1148;23024;-79
2020/12/26 22:56:23;;;;;;;49.77;19.80;;;;;;;-3.56;81.29;99122.41;250218;1148;23084;-78
2020/12/26 23:01:26;;;;;;;49.00;20.77;;;;;;;-3.53;81.36;99123.84;250665;1147;22975;-79
2020/12/26 23:06:29;;;;;;;44.67;20.50;;;;;;;-3.55;80.92;99121.42;250322;1149;23040;-77
2020/12/26 23:11:31;;;;;;;48.37;20.33;;;;;;;-3.59;81.10;99112.31;250044;1150;22946;-78
2020/12/26 23:16:33;;;;;;;68.13;25.47;;;;;;;-3.59;81.10;99096.60;250182;1147;22960;-79
2020/12/26 23:21:35;;;;;;;69.97;25.50;;;;;;;-3.61;80.68;99096.79;250246;1151;22924;-78
2020/12/26 23:26:37;;;;;;;65.50;23.93;;;;;;;-3.67;81.06;99076.58;250548;1151;22880;-77